sensor_id;sensor_type;location;lat;lon;timestamp;P1;durP1;ratioP1;P2;durP2;ratioP2
20890;SDS011;10605;52.968;8.844;2022-10-16T00:01:38;2.58;;;1.77;;
20890;SDS011;10605;52.968;8.844;2022-10-16T00:04:04;2.67;;;1.58;;
20890;SDS011;10605;52.968;8.844;2022-10-16T00:06:30;4.28;;;1.67;;
20890;SDS011;10605;52.968;8.844;2022-10-16T00:08:57;4.28;;;2.10;;
20890;SDS011;10605;52.968;8.844;2022-10-16T00:11:38;2.95;;;1.60;;
20890;SDS011;10605;52.968;8.844;2022-10-16T00:14:14;4.03;;;1.80;;
20890;SDS011;10605;52.968;8.844;2022-10-16T00:16:41;5.68;;;2.05;;
20890;SDS011;10605;52.968;8.844;2022-10-16T00:19:07;3.75;;;1.70;;
20890;SDS011;10605;52.968;8.844;2022-10-16T00:21:34;3.53;;;2.00;;
20890;SDS011;10605;52.968;8.844;2022-10-16T00:24:06;5.22;;;1.95;;
20890;SDS011;10605;52.968;8.844;2022-10-16T00:26:36;5.90;;;1.80;;
20890;SDS011;10605;52.968;8.844;2022-10-16T00:29:03;3.72;;;1.80;;
20890;SDS011;10605;52.968;8.844;2022-10-16T00:31:29;2.28;;;1.80;;
20890;SDS011;10605;52.968;8.844;2022-10-16T00:33:58;2.22;;;2.03;;
20890;SDS011;10605;52.968;8.844;2022-10-16T00:36:26;2.75;;;2.00;;
20890;SDS011;10605;52.968;8.844;2022-10-16T00:38:55;5.07;;;1.83;;
20890;SDS011;10605;52.968;8.844;2022-10-16T00:41:26;3.15;;;1.48;;
20890;SDS011;10605;52.968;8.844;2022-10-16T00:43:56;4.57;;;2.10;;
20890;SDS011;10605;52.968;8.844;2022-10-16T00:46:33;6.43;;;2.17;;
20890;SDS011;10605;52.968;8.844;2022-10-16T00:49:11;4.32;;;1.65;;
20890;SDS011;10605;52.968;8.844;2022-10-16T00:51:48;9.50;;;2.25;;
20890;SDS011;10605;52.968;8.844;2022-10-16T00:54:24;4.68;;;1.83;;
20890;SDS011;10605;52.968;8.844;2022-10-16T00:56:56;5.00;;;1.88;;
20890;SDS011;10605;52.968;8.844;2022-10-16T00:59:29;3.00;;;2.30;;
20890;SDS011;10605;52.968;8.844;2022-10-16T01:01:59;5.30;;;2.03;;
20890;SDS011;10605;52.968;8.844;2022-10-16T01:04:30;2.42;;;2.22;;
20890;SDS011;10605;52.968;8.844;2022-10-16T01:15:37;3.90;;;2.15;;
20890;SDS011;10605;52.968;8.844;2022-10-16T01:29:54;2.75;;;2.55;;
20890;SDS011;10605;52.968;8.844;2022-10-16T01:32:43;3.00;;;2.80;;
20890;SDS011;10605;52.968;8.844;2022-10-16T01:40:47;9.82;;;3.22;;
20890;SDS011;10605;52.968;8.844;2022-10-16T01:43:19;3.30;;;3.00;;
20890;SDS011;10605;52.968;8.844;2022-10-16T01:45:52;5.18;;;3.13;;
20890;SDS011;10605;52.968;8.844;2022-10-16T01:48:20;5.93;;;3.33;;
20890;SDS011;10605;52.968;8.844;2022-10-16T01:53:40;7.82;;;3.17;;
20890;SDS011;10605;52.968;8.844;2022-10-16T01:56:11;3.40;;;3.10;;
20890;SDS011;10605;52.968;8.844;2022-10-16T01:58:40;3.58;;;2.70;;
20890;SDS011;10605;52.968;8.844;2022-10-16T02:01:10;4.32;;;3.35;;
20890;SDS011;10605;52.968;8.844;2022-10-16T02:03:38;4.18;;;3.53;;
20890;SDS011;10605;52.968;8.844;2022-10-16T02:06:07;5.80;;;2.88;;
20890;SDS011;10605;52.968;8.844;2022-10-16T02:08:36;4.75;;;3.58;;
20890;SDS011;10605;52.968;8.844;2022-10-16T02:11:03;3.00;;;2.80;;
20890;SDS011;10605;52.968;8.844;2022-10-16T02:13:42;8.80;;;3.42;;
20890;SDS011;10605;52.968;8.844;2022-10-16T02:16:20;6.95;;;3.33;;
20890;SDS011;10605;52.968;8.844;2022-10-16T02:18:46;9.55;;;3.47;;
20890;SDS011;10605;52.968;8.844;2022-10-16T02:24:32;3.28;;;3.03;;
20890;SDS011;10605;52.968;8.844;2022-10-16T02:30:00;6.07;;;3.45;;
20890;SDS011;10605;52.968;8.844;2022-10-16T02:32:48;3.88;;;3.67;;
20890;SDS011;10605;52.968;8.844;2022-10-16T02:35:18;5.53;;;3.35;;
20890;SDS011;10605;52.968;8.844;2022-10-16T02:37:48;5.90;;;3.28;;
20890;SDS011;10605;52.968;8.844;2022-10-16T02:40:19;4.38;;;3.85;;
20890;SDS011;10605;52.968;8.844;2022-10-16T02:42:49;4.70;;;4.30;;
20890;SDS011;10605;52.968;8.844;2022-10-16T02:45:21;8.38;;;7.03;;
20890;SDS011;10605;52.968;8.844;2022-10-16T02:47:50;16.30;;;13.55;;
20890;SDS011;10605;52.968;8.844;2022-10-16T02:50:19;10.00;;;6.65;;
20890;SDS011;10605;52.968;8.844;2022-10-16T02:52:50;6.68;;;5.45;;
20890;SDS011;10605;52.968;8.844;2022-10-16T02:55:36;12.27;;;4.97;;
20890;SDS011;10605;52.968;8.844;2022-10-16T02:58:10;5.28;;;4.68;;
20890;SDS011;10605;52.968;8.844;2022-10-16T03:00:36;6.90;;;5.15;;
20890;SDS011;10605;52.968;8.844;2022-10-16T03:03:04;5.65;;;5.10;;
20890;SDS011;10605;52.968;8.844;2022-10-16T03:05:29;5.32;;;4.85;;
20890;SDS011;10605;52.968;8.844;2022-10-16T03:07:58;7.72;;;5.65;;
20890;SDS011;10605;52.968;8.844;2022-10-16T03:10:31;15.05;;;7.43;;
20890;SDS011;10605;52.968;8.844;2022-10-16T03:12:59;9.32;;;7.88;;
20890;SDS011;10605;52.968;8.844;2022-10-16T03:15:25;10.07;;;9.13;;
20890;SDS011;10605;52.968;8.844;2022-10-16T03:17:59;13.50;;;7.68;;
20890;SDS011;10605;52.968;8.844;2022-10-16T03:20:25;19.48;;;7.60;;
20890;SDS011;10605;52.968;8.844;2022-10-16T03:22:52;9.95;;;8.00;;
20890;SDS011;10605;52.968;8.844;2022-10-16T03:25:17;9.63;;;8.10;;
20890;SDS011;10605;52.968;8.844;2022-10-16T03:27:45;13.10;;;7.40;;
20890;SDS011;10605;52.968;8.844;2022-10-16T03:30:11;12.48;;;8.95;;
20890;SDS011;10605;52.968;8.844;2022-10-16T03:32:40;13.98;;;9.45;;
20890;SDS011;10605;52.968;8.844;2022-10-16T03:35:06;12.48;;;9.25;;
20890;SDS011;10605;52.968;8.844;2022-10-16T03:37:32;17.85;;;8.93;;
20890;SDS011;10605;52.968;8.844;2022-10-16T03:39:58;14.15;;;9.15;;
20890;SDS011;10605;52.968;8.844;2022-10-16T03:42:24;13.88;;;9.20;;
20890;SDS011;10605;52.968;8.844;2022-10-16T03:44:50;15.30;;;9.98;;
20890;SDS011;10605;52.968;8.844;2022-10-16T03:47:33;15.65;;;9.57;;
20890;SDS011;10605;52.968;8.844;2022-10-16T03:50:02;16.02;;;9.77;;
20890;SDS011;10605;52.968;8.844;2022-10-16T03:52:29;17.42;;;10.32;;
20890;SDS011;10605;52.968;8.844;2022-10-16T03:54:57;15.43;;;9.85;;
20890;SDS011;10605;52.968;8.844;2022-10-16T03:57:23;19.73;;;10.45;;
20890;SDS011;10605;52.968;8.844;2022-10-16T03:59:52;18.25;;;10.27;;
20890;SDS011;10605;52.968;8.844;2022-10-16T04:02:21;16.92;;;10.25;;
20890;SDS011;10605;52.968;8.844;2022-10-16T04:04:49;14.60;;;10.13;;
20890;SDS011;10605;52.968;8.844;2022-10-16T04:07:14;55.65;;;25.67;;
20890;SDS011;10605;52.968;8.844;2022-10-16T04:09:40;45.63;;;23.58;;
20890;SDS011;10605;52.968;8.844;2022-10-16T04:12:06;25.15;;;13.20;;
20890;SDS011;10605;52.968;8.844;2022-10-16T04:14:32;25.33;;;13.55;;
20890;SDS011;10605;52.968;8.844;2022-10-16T04:16:58;21.20;;;12.10;;
20890;SDS011;10605;52.968;8.844;2022-10-16T04:19:24;26.45;;;13.35;;
20890;SDS011;10605;52.968;8.844;2022-10-16T04:21:49;20.00;;;12.63;;
20890;SDS011;10605;52.968;8.844;2022-10-16T04:24:18;23.23;;;11.98;;
20890;SDS011;10605;52.968;8.844;2022-10-16T04:26:43;20.90;;;12.95;;
20890;SDS011;10605;52.968;8.844;2022-10-16T04:29:12;13.00;;;11.70;;
20890;SDS011;10605;52.968;8.844;2022-10-16T04:31:38;16.95;;;11.30;;
20890;SDS011;10605;52.968;8.844;2022-10-16T04:34:06;21.42;;;12.27;;
20890;SDS011;10605;52.968;8.844;2022-10-16T04:36:31;22.27;;;12.48;;
20890;SDS011;10605;52.968;8.844;2022-10-16T04:38:57;17.30;;;12.32;;
20890;SDS011;10605;52.968;8.844;2022-10-16T04:41:23;19.27;;;12.27;;
20890;SDS011;10605;52.968;8.844;2022-10-16T04:43:48;18.73;;;11.95;;
20890;SDS011;10605;52.968;8.844;2022-10-16T04:46:14;19.58;;;12.30;;
20890;SDS011;10605;52.968;8.844;2022-10-16T04:48:40;17.30;;;12.23;;
20890;SDS011;10605;52.968;8.844;2022-10-16T04:51:08;19.95;;;11.93;;
20890;SDS011;10605;52.968;8.844;2022-10-16T04:53:33;20.60;;;12.68;;
20890;SDS011;10605;52.968;8.844;2022-10-16T04:55:59;22.25;;;12.52;;
20890;SDS011;10605;52.968;8.844;2022-10-16T04:58:25;30.00;;;12.95;;
20890;SDS011;10605;52.968;8.844;2022-10-16T05:00:50;27.02;;;13.38;;
20890;SDS011;10605;52.968;8.844;2022-10-16T05:03:19;16.23;;;12.93;;
20890;SDS011;10605;52.968;8.844;2022-10-16T05:05:45;21.02;;;14.15;;
20890;SDS011;10605;52.968;8.844;2022-10-16T05:08:12;28.92;;;13.93;;
20890;SDS011;10605;52.968;8.844;2022-10-16T05:10:43;15.02;;;12.75;;
20890;SDS011;10605;52.968;8.844;2022-10-16T05:13:10;21.35;;;14.23;;
20890;SDS011;10605;52.968;8.844;2022-10-16T05:15:36;23.00;;;14.93;;
20890;SDS011;10605;52.968;8.844;2022-10-16T05:18:01;23.95;;;14.68;;
20890;SDS011;10605;52.968;8.844;2022-10-16T05:20:30;23.88;;;14.45;;
20890;SDS011;10605;52.968;8.844;2022-10-16T05:22:56;22.17;;;14.15;;
20890;SDS011;10605;52.968;8.844;2022-10-16T05:25:22;29.95;;;15.02;;
20890;SDS011;10605;52.968;8.844;2022-10-16T05:27:48;24.27;;;14.63;;
20890;SDS011;10605;52.968;8.844;2022-10-16T05:30:15;23.63;;;15.30;;
20890;SDS011;10605;52.968;8.844;2022-10-16T05:32:41;26.35;;;15.30;;
20890;SDS011;10605;52.968;8.844;2022-10-16T05:35:21;23.33;;;14.77;;
20890;SDS011;10605;52.968;8.844;2022-10-16T05:37:50;24.40;;;14.18;;
20890;SDS011;10605;52.968;8.844;2022-10-16T05:40:17;20.17;;;14.32;;
20890;SDS011;10605;52.968;8.844;2022-10-16T05:42:43;28.52;;;14.77;;
20890;SDS011;10605;52.968;8.844;2022-10-16T05:45:09;28.13;;;13.90;;
20890;SDS011;10605;52.968;8.844;2022-10-16T05:47:36;21.95;;;14.57;;
20890;SDS011;10605;52.968;8.844;2022-10-16T05:50:05;28.17;;;14.23;;
20890;SDS011;10605;52.968;8.844;2022-10-16T05:52:31;18.55;;;13.52;;
20890;SDS011;10605;52.968;8.844;2022-10-16T05:54:57;23.65;;;13.88;;
20890;SDS011;10605;52.968;8.844;2022-10-16T05:57:23;22.75;;;13.73;;
20890;SDS011;10605;52.968;8.844;2022-10-16T05:59:53;19.90;;;13.32;;
20890;SDS011;10605;52.968;8.844;2022-10-16T06:02:22;25.67;;;13.65;;
20890;SDS011;10605;52.968;8.844;2022-10-16T06:04:48;15.00;;;11.85;;
20890;SDS011;10605;52.968;8.844;2022-10-16T06:07:14;18.05;;;12.52;;
20890;SDS011;10605;52.968;8.844;2022-10-16T06:09:39;23.25;;;11.20;;
20890;SDS011;10605;52.968;8.844;2022-10-16T06:12:05;25.92;;;12.73;;
20890;SDS011;10605;52.968;8.844;2022-10-16T06:14:31;16.23;;;11.77;;
20890;SDS011;10605;52.968;8.844;2022-10-16T06:16:57;19.38;;;11.85;;
20890;SDS011;10605;52.968;8.844;2022-10-16T06:19:23;18.48;;;11.35;;
20890;SDS011;10605;52.968;8.844;2022-10-16T06:21:56;16.83;;;10.73;;
20890;SDS011;10605;52.968;8.844;2022-10-16T06:24:25;13.90;;;10.52;;
20890;SDS011;10605;52.968;8.844;2022-10-16T06:26:51;15.63;;;10.13;;
20890;SDS011;10605;52.968;8.844;2022-10-16T06:29:16;14.00;;;9.52;;
20890;SDS011;10605;52.968;8.844;2022-10-16T06:31:42;12.57;;;9.82;;
20890;SDS011;10605;52.968;8.844;2022-10-16T06:34:09;17.33;;;9.13;;
20890;SDS011;10605;52.968;8.844;2022-10-16T06:36:36;11.00;;;9.70;;
20890;SDS011;10605;52.968;8.844;2022-10-16T06:39:03;11.05;;;9.23;;
20890;SDS011;10605;52.968;8.844;2022-10-16T06:41:31;11.85;;;9.38;;
20890;SDS011;10605;52.968;8.844;2022-10-16T06:44:00;9.23;;;8.43;;
20890;SDS011;10605;52.968;8.844;2022-10-16T06:46:41;16.33;;;8.73;;
20890;SDS011;10605;52.968;8.844;2022-10-16T06:49:13;8.68;;;7.65;;
20890;SDS011;10605;52.968;8.844;2022-10-16T06:58:47;8.32;;;6.53;;
20890;SDS011;10605;52.968;8.844;2022-10-16T07:01:21;7.57;;;6.88;;
20890;SDS011;10605;52.968;8.844;2022-10-16T07:07:52;10.35;;;8.55;;
20890;SDS011;10605;52.968;8.844;2022-10-16T07:34:40;11.65;;;9.77;;
20890;SDS011;10605;52.968;8.844;2022-10-16T07:37:11;13.95;;;8.05;;
20890;SDS011;10605;52.968;8.844;2022-10-16T07:39:40;18.13;;;9.85;;
20890;SDS011;10605;52.968;8.844;2022-10-16T07:42:51;11.30;;;7.35;;
20890;SDS011;10605;52.968;8.844;2022-10-16T07:46:00;4.75;;;4.15;;
20890;SDS011;10605;52.968;8.844;2022-10-16T07:48:29;6.35;;;5.28;;
20890;SDS011;10605;52.968;8.844;2022-10-16T07:51:00;9.35;;;5.82;;
20890;SDS011;10605;52.968;8.844;2022-10-16T07:53:36;11.77;;;6.43;;
20890;SDS011;10605;52.968;8.844;2022-10-16T07:56:23;6.70;;;5.07;;
20890;SDS011;10605;52.968;8.844;2022-10-16T08:05:46;2.72;;;2.53;;
20890;SDS011;10605;52.968;8.844;2022-10-16T08:08:38;5.10;;;3.28;;
20890;SDS011;10605;52.968;8.844;2022-10-16T08:11:07;4.38;;;3.13;;
20890;SDS011;10605;52.968;8.844;2022-10-16T08:13:33;3.63;;;3.20;;
20890;SDS011;10605;52.968;8.844;2022-10-16T08:15:59;3.60;;;2.63;;
20890;SDS011;10605;52.968;8.844;2022-10-16T08:18:25;5.65;;;2.70;;
20890;SDS011;10605;52.968;8.844;2022-10-16T08:20:58;3.70;;;3.33;;
20890;SDS011;10605;52.968;8.844;2022-10-16T08:23:28;4.10;;;3.53;;
20890;SDS011;10605;52.968;8.844;2022-10-16T08:26:02;3.42;;;3.22;;
20890;SDS011;10605;52.968;8.844;2022-10-16T08:28:30;2.42;;;2.22;;
20890;SDS011;10605;52.968;8.844;2022-10-16T08:30:56;3.40;;;2.63;;
20890;SDS011;10605;52.968;8.844;2022-10-16T08:33:32;5.65;;;2.72;;
20890;SDS011;10605;52.968;8.844;2022-10-16T08:35:59;4.50;;;2.75;;
20890;SDS011;10605;52.968;8.844;2022-10-16T08:38:25;5.03;;;2.00;;
20890;SDS011;10605;52.968;8.844;2022-10-16T08:40:51;2.70;;;2.50;;
20890;SDS011;10605;52.968;8.844;2022-10-16T08:48:52;5.63;;;1.77;;
20890;SDS011;10605;52.968;8.844;2022-10-16T08:53:54;2.28;;;1.90;;
20890;SDS011;10605;52.968;8.844;2022-10-16T08:56:34;1.88;;;1.75;;
20890;SDS011;10605;52.968;8.844;2022-10-16T08:59:00;3.63;;;1.73;;
20890;SDS011;10605;52.968;8.844;2022-10-16T09:01:41;2.58;;;1.70;;
20890;SDS011;10605;52.968;8.844;2022-10-16T09:04:39;3.00;;;1.50;;
20890;SDS011;10605;52.968;8.844;2022-10-16T09:10:24;2.65;;;1.40;;
20890;SDS011;10605;52.968;8.844;2022-10-16T09:13:15;1.85;;;1.20;;
20890;SDS011;10605;52.968;8.844;2022-10-16T09:23:55;4.05;;;1.35;;
20890;SDS011;10605;52.968;8.844;2022-10-16T09:26:28;2.65;;;1.10;;
20890;SDS011;10605;52.968;8.844;2022-10-16T09:28:53;1.63;;;1.08;;
20890;SDS011;10605;52.968;8.844;2022-10-16T09:31:20;1.95;;;1.13;;
20890;SDS011;10605;52.968;8.844;2022-10-16T09:33:55;5.20;;;1.70;;
20890;SDS011;10605;52.968;8.844;2022-10-16T09:36:29;2.10;;;1.00;;
20890;SDS011;10605;52.968;8.844;2022-10-16T09:39:10;4.50;;;1.00;;
20890;SDS011;10605;52.968;8.844;2022-10-16T09:41:37;1.85;;;1.10;;
20890;SDS011;10605;52.968;8.844;2022-10-16T09:44:12;4.72;;;1.00;;
20890;SDS011;10605;52.968;8.844;2022-10-16T09:46:43;2.05;;;1.05;;
20890;SDS011;10605;52.968;8.844;2022-10-16T09:49:25;2.38;;;0.77;;
20890;SDS011;10605;52.968;8.844;2022-10-16T09:52:14;1.92;;;1.00;;
20890;SDS011;10605;52.968;8.844;2022-10-16T09:54:50;2.17;;;0.80;;
20890;SDS011;10605;52.968;8.844;2022-10-16T09:57:17;2.03;;;1.00;;
20890;SDS011;10605;52.968;8.844;2022-10-16T09:59:47;2.58;;;1.05;;
20890;SDS011;10605;52.968;8.844;2022-10-16T10:02:15;2.00;;;1.17;;
20890;SDS011;10605;52.968;8.844;2022-10-16T10:04:53;2.95;;;1.13;;
20890;SDS011;10605;52.968;8.844;2022-10-16T10:07:42;3.13;;;0.73;;
20890;SDS011;10605;52.968;8.844;2022-10-16T10:10:27;3.55;;;0.88;;
20890;SDS011;10605;52.968;8.844;2022-10-16T10:12:57;1.48;;;0.80;;
20890;SDS011;10605;52.968;8.844;2022-10-16T10:15:27;3.67;;;0.90;;
20890;SDS011;10605;52.968;8.844;2022-10-16T10:18:02;1.45;;;0.82;;
20890;SDS011;10605;52.968;8.844;2022-10-16T10:20:31;2.50;;;0.90;;
20890;SDS011;10605;52.968;8.844;2022-10-16T10:22:59;2.33;;;0.98;;
20890;SDS011;10605;52.968;8.844;2022-10-16T10:59:23;3.80;;;0.82;;
20890;SDS011;10605;52.968;8.844;2022-10-16T11:01:55;2.05;;;0.68;;
20890;SDS011;10605;52.968;8.844;2022-10-16T11:07:28;2.58;;;0.95;;
20890;SDS011;10605;52.968;8.844;2022-10-16T11:10:16;1.88;;;0.55;;
20890;SDS011;10605;52.968;8.844;2022-10-16T11:12:48;3.45;;;0.80;;
20890;SDS011;10605;52.968;8.844;2022-10-16T11:15:36;2.25;;;0.85;;
20890;SDS011;10605;52.968;8.844;2022-10-16T11:18:11;1.75;;;0.95;;
20890;SDS011;10605;52.968;8.844;2022-10-16T11:20:54;4.82;;;1.00;;
20890;SDS011;10605;52.968;8.844;2022-10-16T11:23:41;7.95;;;1.17;;
20890;SDS011;10605;52.968;8.844;2022-10-16T11:43:01;3.38;;;1.27;;
20890;SDS011;10605;52.968;8.844;2022-10-16T11:46:08;1.38;;;0.68;;
20890;SDS011;10605;52.968;8.844;2022-10-16T11:48:45;3.75;;;0.70;;
20890;SDS011;10605;52.968;8.844;2022-10-16T11:57:17;3.17;;;1.85;;
20890;SDS011;10605;52.968;8.844;2022-10-16T12:00:17;1.80;;;0.77;;
20890;SDS011;10605;52.968;8.844;2022-10-16T12:03:30;5.45;;;1.10;;
20890;SDS011;10605;52.968;8.844;2022-10-16T12:06:28;2.28;;;0.65;;
20890;SDS011;10605;52.968;8.844;2022-10-16T12:09:25;3.75;;;0.75;;
20890;SDS011;10605;52.968;8.844;2022-10-16T12:12:36;2.97;;;0.98;;
20890;SDS011;10605;52.968;8.844;2022-10-16T12:15:45;2.88;;;0.60;;
20890;SDS011;10605;52.968;8.844;2022-10-16T12:18:22;5.13;;;1.00;;
20890;SDS011;10605;52.968;8.844;2022-10-16T12:21:18;1.45;;;0.68;;
20890;SDS011;10605;52.968;8.844;2022-10-16T12:24:27;2.63;;;0.93;;
20890;SDS011;10605;52.968;8.844;2022-10-16T12:27:25;4.88;;;0.63;;
20890;SDS011;10605;52.968;8.844;2022-10-16T12:30:01;5.75;;;0.88;;
20890;SDS011;10605;52.968;8.844;2022-10-16T12:32:34;4.45;;;0.98;;
20890;SDS011;10605;52.968;8.844;2022-10-16T12:35:22;2.60;;;0.82;;
20890;SDS011;10605;52.968;8.844;2022-10-16T12:37:51;3.58;;;1.13;;
20890;SDS011;10605;52.968;8.844;2022-10-16T12:40:32;6.72;;;1.02;;
20890;SDS011;10605;52.968;8.844;2022-10-16T12:43:27;2.63;;;0.70;;
20890;SDS011;10605;52.968;8.844;2022-10-16T12:48:40;4.22;;;1.05;;
20890;SDS011;10605;52.968;8.844;2022-10-16T12:51:54;7.22;;;1.00;;
20890;SDS011;10605;52.968;8.844;2022-10-16T12:56:38;3.15;;;1.10;;
20890;SDS011;10605;52.968;8.844;2022-10-16T12:59:24;2.28;;;0.88;;
20890;SDS011;10605;52.968;8.844;2022-10-16T13:02:20;5.10;;;0.95;;
20890;SDS011;10605;52.968;8.844;2022-10-16T13:16:29;2.97;;;1.02;;
20890;SDS011;10605;52.968;8.844;2022-10-16T13:25:49;5.65;;;2.53;;
20890;SDS011;10605;52.968;8.844;2022-10-16T13:28:42;6.78;;;1.30;;
20890;SDS011;10605;52.968;8.844;2022-10-16T13:31:17;7.78;;;3.47;;
20890;SDS011;10605;52.968;8.844;2022-10-16T13:37:00;2.03;;;0.85;;
20890;SDS011;10605;52.968;8.844;2022-10-16T13:40:01;1.63;;;0.98;;
20890;SDS011;10605;52.968;8.844;2022-10-16T13:42:47;2.90;;;1.35;;
20890;SDS011;10605;52.968;8.844;2022-10-16T13:45:21;4.00;;;0.80;;
20890;SDS011;10605;52.968;8.844;2022-10-16T13:48:05;6.65;;;1.33;;
20890;SDS011;10605;52.968;8.844;2022-10-16T13:50:36;5.10;;;1.10;;
20890;SDS011;10605;52.968;8.844;2022-10-16T13:53:03;1.92;;;1.15;;
20890;SDS011;10605;52.968;8.844;2022-10-16T13:55:49;6.45;;;1.15;;
20890;SDS011;10605;52.968;8.844;2022-10-16T13:58:38;6.53;;;1.55;;
20890;SDS011;10605;52.968;8.844;2022-10-16T14:04:19;2.95;;;1.15;;
20890;SDS011;10605;52.968;8.844;2022-10-16T14:06:55;7.15;;;1.08;;
20890;SDS011;10605;52.968;8.844;2022-10-16T14:13:34;4.10;;;1.00;;
20890;SDS011;10605;52.968;8.844;2022-10-16T14:17:05;8.02;;;1.20;;
20890;SDS011;10605;52.968;8.844;2022-10-16T14:19:54;5.72;;;1.05;;
20890;SDS011;10605;52.968;8.844;2022-10-16T14:22:58;4.25;;;1.33;;
20890;SDS011;10605;52.968;8.844;2022-10-16T14:29:08;5.40;;;1.08;;
20890;SDS011;10605;52.968;8.844;2022-10-16T14:32:20;6.03;;;1.10;;
20890;SDS011;10605;52.968;8.844;2022-10-16T14:34:56;3.65;;;1.35;;
20890;SDS011;10605;52.968;8.844;2022-10-16T14:37:27;7.72;;;1.52;;
20890;SDS011;10605;52.968;8.844;2022-10-16T14:39:55;4.70;;;1.23;;
20890;SDS011;10605;52.968;8.844;2022-10-16T14:42:22;6.80;;;1.52;;
20890;SDS011;10605;52.968;8.844;2022-10-16T14:44:52;8.15;;;1.33;;
20890;SDS011;10605;52.968;8.844;2022-10-16T14:47:23;5.88;;;1.33;;
20890;SDS011;10605;52.968;8.844;2022-10-16T14:49:54;3.50;;;1.08;;
20890;SDS011;10605;52.968;8.844;2022-10-16T14:52:24;7.75;;;1.40;;
20890;SDS011;10605;52.968;8.844;2022-10-16T14:54:50;6.18;;;1.27;;
20890;SDS011;10605;52.968;8.844;2022-10-16T14:57:22;7.13;;;1.15;;
20890;SDS011;10605;52.968;8.844;2022-10-16T14:59:54;11.63;;;1.77;;
20890;SDS011;10605;52.968;8.844;2022-10-16T15:02:28;9.95;;;1.45;;
20890;SDS011;10605;52.968;8.844;2022-10-16T15:04:56;7.45;;;1.25;;
20890;SDS011;10605;52.968;8.844;2022-10-16T15:07:43;8.30;;;1.30;;
20890;SDS011;10605;52.968;8.844;2022-10-16T15:10:09;8.13;;;1.35;;
20890;SDS011;10605;52.968;8.844;2022-10-16T15:12:35;7.38;;;1.23;;
20890;SDS011;10605;52.968;8.844;2022-10-16T15:15:01;6.10;;;1.50;;
20890;SDS011;10605;52.968;8.844;2022-10-16T15:17:29;5.40;;;1.40;;
20890;SDS011;10605;52.968;8.844;2022-10-16T15:19:58;7.28;;;1.10;;
20890;SDS011;10605;52.968;8.844;2022-10-16T15:22:24;8.55;;;1.48;;
20890;SDS011;10605;52.968;8.844;2022-10-16T15:24:52;8.00;;;1.10;;
20890;SDS011;10605;52.968;8.844;2022-10-16T15:27:20;4.32;;;1.40;;
20890;SDS011;10605;52.968;8.844;2022-10-16T15:29:46;2.85;;;1.10;;
20890;SDS011;10605;52.968;8.844;2022-10-16T15:32:11;7.80;;;1.27;;
20890;SDS011;10605;52.968;8.844;2022-10-16T15:34:37;7.55;;;1.50;;
20890;SDS011;10605;52.968;8.844;2022-10-16T15:37:03;6.05;;;1.85;;
20890;SDS011;10605;52.968;8.844;2022-10-16T15:39:29;6.25;;;1.25;;
20890;SDS011;10605;52.968;8.844;2022-10-16T15:41:54;3.05;;;1.08;;
20890;SDS011;10605;52.968;8.844;2022-10-16T15:44:20;4.65;;;1.20;;
20890;SDS011;10605;52.968;8.844;2022-10-16T15:46:54;2.60;;;1.35;;
20890;SDS011;10605;52.968;8.844;2022-10-16T15:49:21;6.38;;;1.35;;
20890;SDS011;10605;52.968;8.844;2022-10-16T15:51:47;3.67;;;1.20;;
20890;SDS011;10605;52.968;8.844;2022-10-16T15:54:20;6.43;;;1.77;;
20890;SDS011;10605;52.968;8.844;2022-10-16T15:56:47;4.75;;;1.40;;
20890;SDS011;10605;52.968;8.844;2022-10-16T15:59:13;5.18;;;1.65;;
20890;SDS011;10605;52.968;8.844;2022-10-16T16:01:39;3.90;;;1.80;;
20890;SDS011;10605;52.968;8.844;2022-10-16T16:04:08;3.08;;;1.13;;
20890;SDS011;10605;52.968;8.844;2022-10-16T16:06:37;7.18;;;1.52;;
20890;SDS011;10605;52.968;8.844;2022-10-16T16:09:05;4.45;;;1.10;;
20890;SDS011;10605;52.968;8.844;2022-10-16T16:11:30;6.43;;;1.58;;
20890;SDS011;10605;52.968;8.844;2022-10-16T16:13:58;5.10;;;1.48;;
20890;SDS011;10605;52.968;8.844;2022-10-16T16:16:24;7.85;;;1.60;;
20890;SDS011;10605;52.968;8.844;2022-10-16T16:18:52;13.02;;;2.20;;
20890;SDS011;10605;52.968;8.844;2022-10-16T16:21:18;5.45;;;1.42;;
20890;SDS011;10605;52.968;8.844;2022-10-16T16:23:44;6.18;;;1.50;;
20890;SDS011;10605;52.968;8.844;2022-10-16T16:26:31;5.13;;;1.30;;
20890;SDS011;10605;52.968;8.844;2022-10-16T16:29:02;6.40;;;1.85;;
20890;SDS011;10605;52.968;8.844;2022-10-16T16:31:29;6.05;;;1.73;;
20890;SDS011;10605;52.968;8.844;2022-10-16T16:33:56;7.00;;;2.05;;
20890;SDS011;10605;52.968;8.844;2022-10-16T16:36:23;6.90;;;1.75;;
20890;SDS011;10605;52.968;8.844;2022-10-16T16:38:50;8.02;;;1.70;;
20890;SDS011;10605;52.968;8.844;2022-10-16T16:41:20;6.03;;;1.90;;
20890;SDS011;10605;52.968;8.844;2022-10-16T16:43:50;5.82;;;1.92;;
20890;SDS011;10605;52.968;8.844;2022-10-16T16:46:21;3.63;;;1.63;;
20890;SDS011;10605;52.968;8.844;2022-10-16T16:48:47;9.20;;;1.95;;
20890;SDS011;10605;52.968;8.844;2022-10-16T16:51:16;6.28;;;1.75;;
20890;SDS011;10605;52.968;8.844;2022-10-16T16:53:46;4.05;;;1.75;;
20890;SDS011;10605;52.968;8.844;2022-10-16T16:56:13;9.68;;;2.13;;
20890;SDS011;10605;52.968;8.844;2022-10-16T16:58:39;5.78;;;2.08;;
20890;SDS011;10605;52.968;8.844;2022-10-16T17:01:05;12.05;;;2.63;;
20890;SDS011;10605;52.968;8.844;2022-10-16T17:03:34;7.32;;;1.83;;
20890;SDS011;10605;52.968;8.844;2022-10-16T17:06:07;6.03;;;1.95;;
20890;SDS011;10605;52.968;8.844;2022-10-16T17:08:34;7.20;;;2.17;;
20890;SDS011;10605;52.968;8.844;2022-10-16T17:11:02;7.82;;;2.30;;
20890;SDS011;10605;52.968;8.844;2022-10-16T17:13:29;6.32;;;2.35;;
20890;SDS011;10605;52.968;8.844;2022-10-16T17:16:03;10.82;;;2.47;;
20890;SDS011;10605;52.968;8.844;2022-10-16T17:18:30;7.75;;;2.10;;
20890;SDS011;10605;52.968;8.844;2022-10-16T17:21:04;6.65;;;2.65;;
20890;SDS011;10605;52.968;8.844;2022-10-16T17:23:32;3.92;;;2.75;;
20890;SDS011;10605;52.968;8.844;2022-10-16T17:26:05;5.80;;;2.58;;
20890;SDS011;10605;52.968;8.844;2022-10-16T17:28:32;7.93;;;2.67;;
20890;SDS011;10605;52.968;8.844;2022-10-16T17:31:12;6.45;;;2.83;;
20890;SDS011;10605;52.968;8.844;2022-10-16T17:33:44;7.72;;;2.70;;
20890;SDS011;10605;52.968;8.844;2022-10-16T17:36:10;13.73;;;3.20;;
20890;SDS011;10605;52.968;8.844;2022-10-16T17:38:39;13.98;;;3.10;;
20890;SDS011;10605;52.968;8.844;2022-10-16T17:41:09;9.27;;;3.00;;
20890;SDS011;10605;52.968;8.844;2022-10-16T17:43:42;10.75;;;3.40;;
20890;SDS011;10605;52.968;8.844;2022-10-16T17:46:09;12.00;;;3.45;;
20890;SDS011;10605;52.968;8.844;2022-10-16T17:48:36;9.73;;;3.10;;
20890;SDS011;10605;52.968;8.844;2022-10-16T17:51:04;9.05;;;3.25;;
20890;SDS011;10605;52.968;8.844;2022-10-16T17:53:31;5.15;;;3.13;;
20890;SDS011;10605;52.968;8.844;2022-10-16T17:56:00;5.55;;;3.15;;
20890;SDS011;10605;52.968;8.844;2022-10-16T17:58:27;7.68;;;3.20;;
20890;SDS011;10605;52.968;8.844;2022-10-16T18:00:53;9.43;;;3.92;;
20890;SDS011;10605;52.968;8.844;2022-10-16T18:03:19;11.88;;;3.15;;
20890;SDS011;10605;52.968;8.844;2022-10-16T18:05:55;10.52;;;3.63;;
20890;SDS011;10605;52.968;8.844;2022-10-16T18:08:21;6.40;;;3.45;;
20890;SDS011;10605;52.968;8.844;2022-10-16T18:10:50;13.10;;;4.05;;
20890;SDS011;10605;52.968;8.844;2022-10-16T18:13:18;8.55;;;4.20;;
20890;SDS011;10605;52.968;8.844;2022-10-16T18:15:44;5.50;;;3.70;;
20890;SDS011;10605;52.968;8.844;2022-10-16T18:18:10;11.23;;;3.90;;
20890;SDS011;10605;52.968;8.844;2022-10-16T18:20:38;6.85;;;4.00;;
20890;SDS011;10605;52.968;8.844;2022-10-16T18:23:07;10.88;;;3.40;;
20890;SDS011;10605;52.968;8.844;2022-10-16T18:25:38;6.63;;;2.58;;